Time;durP1;ratioP1;P1;durP2;ratioP2;P2;SDS_P1;SDS_P2;PMS_P1;PMS_P2;Temp;Humidity;BMP_temperature;BMP_pressure;BME280_temperature;BME280_humidity;BME280_pressure;Samples;Min_cycle;Max_cycle;Signal;HPM_P1;HPM_P2
2022/01/15 00:00:12;;;;;;;;;;;1.90;91.80;;;;;;5016974;28;19910;-77
2022/01/15 00:02:38;;;;;;;;;;;1.90;91.80;;;;;;5018367;28;19909;-77
2022/01/15 00:05:04;;;;;;;;;;;1.90;91.80;;;;;;5016980;28;19917;-77
2022/01/15 00:07:29;;;;;;;;;;;1.90;91.80;;;;;;5010422;28;19984;-77
2022/01/15 00:09:55;;;;;;;;;;;1.90;91.70;;;;;;5011030;28;19964;-77
2022/01/15 00:12:21;;;;;;;;;;;1.90;91.70;;;;;;5018151;28;19913;-77
2022/01/15 00:14:46;;;;;;;;;;;1.80;91.60;;;;;;5018262;28;20396;-77
2022/01/15 00:17:32;;;;;;;;;;;1.80;91.60;;;;;;5016979;28;19983;-77
2022/01/15 00:20:05;;;;;;;;;;;1.80;91.70;;;;;;5017675;28;19975;-76
2022/01/15 00:22:31;;;;;;;;;;;1.80;91.70;;;;;;5018173;28;19910;-77
2022/01/15 00:24:56;;;;;;;;;;;1.80;91.70;;;;;;5017743;28;19916;-77
2022/01/15 00:27:22;;;;;;;;;;;1.80;91.70;;;;;;5018240;28;19913;-77
2022/01/15 00:29:47;;;;;;;;;;;1.80;91.70;;;;;;5017968;28;20387;-77
2022/01/15 00:32:13;;;;;;;;;;;1.80;91.60;;;;;;5022539;28;19909;-77
2022/01/15 00:34:39;;;;;;;;;;;1.80;91.60;;;;;;5018190;28;19910;-77
2022/01/15 00:37:04;;;;;;;;;;;1.70;91.50;;;;;;5017009;28;20344;-77
2022/01/15 00:39:30;;;;;;;;;;;1.70;91.50;;;;;;5017910;28;19913;-77
2022/01/15 00:41:56;;;;;;;;;;;1.70;91.50;;;;;;5017953;28;20008;-77
2022/01/15 00:44:21;;;;;;;;;;;1.60;91.40;;;;;;5016307;28;20403;-77
2022/01/15 00:46:47;;;;;;;;;;;1.60;91.40;;;;;;5022783;28;19909;-75
2022/01/15 00:49:13;;;;;;;;;;;1.60;91.50;;;;;;5019175;28;19909;-77
2022/01/15 00:51:39;;;;;;;;;;;1.60;91.60;;;;;;5017867;28;19945;-77
2022/01/15 00:54:04;;;;;;;;;;;1.50;91.50;;;;;;5017747;28;19921;-77
2022/01/15 00:56:30;;;;;;;;;;;1.50;91.50;;;;;;5018068;28;20011;-77
2022/01/15 00:58:56;;;;;;;;;;;1.50;91.50;;;;;;5017550;28;19914;-77
2022/01/15 01:01:22;;;;;;;;;;;1.50;91.50;;;;;;5017814;28;19917;-77
2022/01/15 01:03:48;;;;;;;;;;;1.50;91.60;;;;;;5015999;28;19909;-77
2022/01/15 01:06:14;;;;;;;;;;;1.50;91.70;;;;;;5017694;28;19920;-77
2022/01/15 01:08:40;;;;;;;;;;;1.50;92.00;;;;;;5004965;28;19909;-77
2022/01/15 01:11:12;;;;;;;;;;;1.50;91.70;;;;;;5017799;28;20269;-77
2022/01/15 01:24:28;;;;;;;;;;;1.40;91.60;;;;;;5021229;28;19917;-77
2022/01/15 01:27:04;;;;;;;;;;;1.40;91.90;;;;;;5021288;28;20008;-77
2022/01/15 01:29:51;;;;;;;;;;;1.50;92.00;;;;;;5020814;28;20297;-76
2022/01/15 01:32:37;;;;;;;;;;;1.50;92.10;;;;;;5025721;28;19909;-77
2022/01/15 01:35:08;;;;;;;;;;;1.50;92.00;;;;;;5008539;28;19949;-77
2022/01/15 01:37:39;;;;;;;;;;;1.50;92.00;;;;;;5020981;28;19920;-77
2022/01/15 01:42:44;;;;;;;;;;;1.50;91.80;;;;;;5020975;28;19910;-77
2022/01/15 01:45:12;;;;;;;;;;;1.40;91.80;;;;;;5019861;28;20044;-77
2022/01/15 01:47:40;;;;;;;;;;;1.40;91.80;;;;;;5028762;28;19909;-77
2022/01/15 01:50:11;;;;;;;;;;;1.40;91.80;;;;;;5020672;28;20013;-76
2022/01/15 01:52:37;;;;;;;;;;;1.40;91.80;;;;;;5020496;28;19916;-77
2022/01/15 01:55:04;;;;;;;;;;;1.40;91.80;;;;;;5020706;28;19909;-77
2022/01/15 01:57:30;;;;;;;;;;;1.40;91.80;;;;;;5020451;28;19925;-77
2022/01/15 01:59:55;;;;;;;;;;;1.40;91.80;;;;;;5019299;28;19968;-77
2022/01/15 02:02:21;;;;;;;;;;;1.40;91.80;;;;;;5019423;28;20265;-77
2022/01/15 02:04:46;;;;;;;;;;;1.50;91.90;;;;;;5018919;28;19909;-77
2022/01/15 02:07:13;;;;;;;;;;;1.50;92.00;;;;;;5015928;28;19914;-77
2022/01/15 02:09:39;;;;;;;;;;;1.50;92.00;;;;;;5012464;28;19910;-77
2022/01/15 02:12:05;;;;;;;;;;;1.50;92.00;;;;;;5020094;28;19909;-77
2022/01/15 02:14:31;;;;;;;;;;;1.50;92.10;;;;;;5020272;28;19910;-77
2022/01/15 02:16:57;;;;;;;;;;;1.50;92.10;;;;;;5020084;28;20372;-77
2022/01/15 02:19:33;;;;;;;;;;;1.50;92.20;;;;;;5018543;28;19917;-78
2022/01/15 02:24:42;;;;;;;;;;;1.50;92.20;;;;;;5020115;28;19925;-77
2022/01/15 02:27:08;;;;;;;;;;;1.50;92.20;;;;;;5019991;28;19921;-77
2022/01/15 02:29:33;;;;;;;;;;;1.50;92.20;;;;;;5020156;28;19929;-77
2022/01/15 02:31:59;;;;;;;;;;;1.50;92.30;;;;;;5022924;28;19940;-77
2022/01/15 02:34:25;;;;;;;;;;;1.50;92.30;;;;;;5023244;28;20293;-77
2022/01/15 02:36:50;;;;;;;;;;;1.60;92.30;;;;;;5019877;28;19909;-77
2022/01/15 02:39:16;;;;;;;;;;;1.60;92.30;;;;;;5018235;28;19976;-77
2022/01/15 02:41:41;;;;;;;;;;;1.60;92.40;;;;;;5019806;28;19909;-77
2022/01/15 02:44:10;;;;;;;;;;;1.60;92.40;;;;;;5019573;28;19909;-77
2022/01/15 02:48:00;;;;;;;;;;;1.60;92.40;;;;;;5022827;28;20007;-77
2022/01/15 02:49:22;;;;;;;;;;;1.70;92.40;;;;;;5019885;28;19993;-77
2022/01/15 02:51:48;;;;;;;;;;;1.70;92.40;;;;;;5019674;28;19962;-77
2022/01/15 02:54:13;;;;;;;;;;;1.70;92.40;;;;;;5019557;28;19972;-78
2022/01/15 02:56:40;;;;;;;;;;;1.70;92.40;;;;;;5019540;28;20008;-77
2022/01/15 02:59:08;;;;;;;;;;;1.70;92.40;;;;;;5017828;28;19947;-77
2022/01/15 03:01:34;;;;;;;;;;;1.70;92.50;;;;;;5019433;28;19917;-77
2022/01/15 03:03:59;;;;;;;;;;;1.70;92.80;;;;;;5019214;28;20292;-77
2022/01/15 03:06:25;;;;;;;;;;;1.80;92.60;;;;;;5019295;28;19932;-77
2022/01/15 03:08:51;;;;;;;;;;;1.80;92.60;;;;;;5005389;28;20294;-77
2022/01/15 03:11:17;;;;;;;;;;;1.80;92.90;;;;;;5017971;28;19909;-77
2022/01/15 03:13:44;;;;;;;;;;;1.80;92.60;;;;;;5019121;28;19909;-77
2022/01/15 03:16:11;;;;;;;;;;;1.80;92.60;;;;;;5019134;28;19909;-77
2022/01/15 03:18:37;;;;;;;;;;;1.80;92.60;;;;;;5018396;28;19914;-77
2022/01/15 03:21:03;;;;;;;;;;;1.80;92.60;;;;;;5019074;28;20020;-77
2022/01/15 03:23:29;;;;;;;;;;;1.80;92.60;;;;;;5018951;28;20436;-77
2022/01/15 03:25:55;;;;;;;;;;;1.80;92.60;;;;;;5018823;28;19926;-77
2022/01/15 03:28:20;;;;;;;;;;;1.80;92.60;;;;;;5018764;28;20284;-77
2022/01/15 03:30:46;;;;;;;;;;;1.80;92.60;;;;;;5019053;28;19916;-77
2022/01/15 03:33:12;;;;;;;;;;;1.80;92.70;;;;;;5025080;28;19909;-77
2022/01/15 03:35:38;;;;;;;;;;;1.80;92.70;;;;;;5018955;28;19909;-77
2022/01/15 03:38:04;;;;;;;;;;;1.80;92.70;;;;;;5018189;28;19918;-77
2022/01/15 03:40:30;;;;;;;;;;;1.80;92.70;;;;;;5018714;28;20000;-77
2022/01/15 03:42:58;;;;;;;;;;;1.80;92.70;;;;;;5018643;28;19933;-77
2022/01/15 03:45:23;;;;;;;;;;;1.80;92.70;;;;;;5018657;28;19920;-77
2022/01/15 03:47:49;;;;;;;;;;;1.70;92.70;;;;;;5026198;28;19910;-77
2022/01/15 03:50:16;;;;;;;;;;;1.70;93.00;;;;;;5018602;28;19914;-77
2022/01/15 03:52:41;;;;;;;;;;;1.70;92.70;;;;;;5005834;28;20430;-77
2022/01/15 03:55:08;;;;;;;;;;;1.60;92.70;;;;;;5018421;28;19972;-77
2022/01/15 03:57:34;;;;;;;;;;;1.60;92.70;;;;;;5018572;28;20005;-77
2022/01/15 04:00:00;;;;;;;;;;;1.60;92.70;;;;;;5018291;28;20396;-77
2022/01/15 04:02:26;;;;;;;;;;;1.60;92.80;;;;;;5017043;28;19913;-77
2022/01/15 04:04:52;;;;;;;;;;;1.50;92.80;;;;;;5017099;28;19968;-77
2022/01/15 04:07:17;;;;;;;;;;;1.50;93.10;;;;;;5013269;28;19910;-77
2022/01/15 04:09:43;;;;;;;;;;;1.50;92.90;;;;;;5011181;28;19910;-75
2022/01/15 04:12:08;;;;;;;;;;;1.50;92.90;;;;;;5018018;28;19913;-77
2022/01/15 04:14:34;;;;;;;;;;;1.50;92.90;;;;;;5018544;28;19913;-77
2022/01/15 04:17:00;;;;;;;;;;;1.50;92.90;;;;;;5018133;28;19909;-77
2022/01/15 04:19:28;;;;;;;;;;;1.50;93.00;;;;;;5018081;28;19914;-77
2022/01/15 04:21:53;;;;;;;;;;;1.50;93.00;;;;;;5018155;28;20265;-77
2022/01/15 04:24:20;;;;;;;;;;;1.50;93.00;;;;;;5018162;28;19975;-77
2022/01/15 04:26:46;;;;;;;;;;;1.50;93.00;;;;;;5016604;28;20296;-77
2022/01/15 04:29:14;;;;;;;;;;;1.50;93.00;;;;;;5018035;28;19910;-77
2022/01/15 04:31:47;;;;;;;;;;;1.50;93.10;;;;;;5017981;28;20368;-77
2022/01/15 04:34:14;;;;;;;;;;;1.50;93.10;;;;;;5023300;28;19910;-77
2022/01/15 04:36:40;;;;;;;;;;;1.50;93.10;;;;;;5018218;28;19910;-77
2022/01/15 04:39:05;;;;;;;;;;;1.50;93.10;;;;;;5017796;28;20376;-77
2022/01/15 04:41:31;;;;;;;;;;;1.50;93.10;;;;;;5018438;28;19910;-77
2022/01/15 04:43:56;;;;;;;;;;;1.50;93.10;;;;;;5017890;28;20384;-77
2022/01/15 04:46:22;;;;;;;;;;;1.50;93.10;;;;;;5019118;28;20333;-77
2022/01/15 04:48:48;;;;;;;;;;;1.50;93.10;;;;;;5023009;28;19953;-77
2022/01/15 04:51:13;;;;;;;;;;;1.50;93.20;;;;;;5021506;28;20004;-78
2022/01/15 04:53:39;;;;;;;;;;;1.50;93.20;;;;;;5021804;28;19916;-77
2022/01/15 04:56:04;;;;;;;;;;;1.50;93.30;;;;;;5021614;28;20024;-77
2022/01/15 04:58:30;;;;;;;;;;;1.50;93.30;;;;;;5021573;28;19936;-77
2022/01/15 05:00:56;;;;;;;;;;;1.50;93.40;;;;;;5021967;28;20375;-77
2022/01/15 05:03:21;;;;;;;;;;;1.50;93.40;;;;;;5021229;28;19910;-78
2022/01/15 05:05:47;;;;;;;;;;;1.50;93.50;;;;;;5021820;28;20036;-77
2022/01/15 05:08:13;;;;;;;;;;;1.50;93.50;;;;;;5007559;28;19942;-77
2022/01/15 05:10:45;;;;;;;;;;;1.50;93.60;;;;;;5008388;28;20380;-77
2022/01/15 05:13:14;;;;;;;;;;;1.50;93.60;;;;;;5021582;28;19932;-77
2022/01/15 05:15:42;;;;;;;;;;;1.50;93.70;;;;;;5021663;28;20415;-77
2022/01/15 05:18:08;;;;;;;;;;;1.50;93.70;;;;;;5020917;28;19960;-77
2022/01/15 05:20:34;;;;;;;;;;;1.50;93.70;;;;;;5021559;28;19909;-78
2022/01/15 05:23:00;;;;;;;;;;;1.50;93.70;;;;;;5020337;28;19959;-78
2022/01/15 05:25:25;;;;;;;;;;;1.50;93.80;;;;;;5020955;28;19921;-77
2022/01/15 05:27:51;;;;;;;;;;;1.40;93.70;;;;;;5021085;28;19964;-78
2022/01/15 05:30:17;;;;;;;;;;;1.50;93.80;;;;;;5021319;28;19971;-77
2022/01/15 05:32:42;;;;;;;;;;;1.50;93.80;;;;;;5026862;28;19936;-78
2022/01/15 05:35:09;;;;;;;;;;;1.50;93.90;;;;;;5021429;28;19909;-77
2022/01/15 05:37:35;;;;;;;;;;;1.50;93.90;;;;;;5020812;28;19909;-77
2022/01/15 05:40:00;;;;;;;;;;;1.50;93.90;;;;;;5020938;28;19909;-77
2022/01/15 05:42:26;;;;;;;;;;;1.50;93.90;;;;;;5019361;28;19917;-77
2022/01/15 05:44:52;;;;;;;;;;;1.50;94.00;;;;;;5019827;28;19909;-77
2022/01/15 05:47:17;;;;;;;;;;;1.50;94.00;;;;;;5026715;28;19968;-77
2022/01/15 05:49:43;;;;;;;;;;;1.50;94.10;;;;;;5020550;28;19932;-77
2022/01/15 05:52:09;;;;;;;;;;;1.50;94.10;;;;;;5020542;28;19910;-77
2022/01/15 05:54:34;;;;;;;;;;;1.50;94.10;;;;;;5019522;28;20020;-77
2022/01/15 05:57:00;;;;;;;;;;;1.50;94.10;;;;;;5020516;28;19916;-77
2022/01/15 05:59:26;;;;;;;;;;;1.50;94.10;;;;;;5020530;28;19913;-77
2022/01/15 06:01:51;;;;;;;;;;;1.50;94.10;;;;;;5020003;28;19916;-77
2022/01/15 06:04:17;;;;;;;;;;;1.50;94.20;;;;;;5020141;28;19910;-78
2022/01/15 06:06:43;;;;;;;;;;;1.50;94.20;;;;;;5019927;28;19909;-87
2022/01/15 06:09:08;;;;;;;;;;;1.50;94.20;;;;;;5007363;28;19910;-77
2022/01/15 06:11:35;;;;;;;;;;;1.50;94.30;;;;;;5020338;28;19914;-77
2022/01/15 06:14:00;;;;;;;;;;;1.50;94.30;;;;;;5020464;28;20369;-77
2022/01/15 06:16:26;;;;;;;;;;;1.50;94.30;;;;;;5020218;28;19944;-78
2022/01/15 06:18:52;;;;;;;;;;;1.50;94.40;;;;;;5019992;28;19913;-77
2022/01/15 06:21:18;;;;;;;;;;;1.50;94.50;;;;;;5020132;28;19917;-78
2022/01/15 06:23:43;;;;;;;;;;;1.50;94.50;;;;;;5020374;28;20051;-78
2022/01/15 06:26:09;;;;;;;;;;;1.50;94.50;;;;;;5019996;28;19961;-78
2022/01/15 06:28:35;;;;;;;;;;;1.50;94.60;;;;;;5019869;28;20009;-77
2022/01/15 06:31:00;;;;;;;;;;;1.50;94.60;;;;;;5020049;28;19957;-77
2022/01/15 06:33:26;;;;;;;;;;;1.50;94.60;;;;;;5025499;28;19910;-77
2022/01/15 06:35:51;;;;;;;;;;;1.50;94.60;;;;;;5019996;28;19909;-77
2022/01/15 06:38:17;;;;;;;;;;;1.50;94.60;;;;;;5019831;28;20009;-78
2022/01/15 06:40:43;;;;;;;;;;;1.60;94.60;;;;;;5019702;28;19957;-77
2022/01/15 06:43:08;;;;;;;;;;;1.60;94.60;;;;;;5019708;28;20020;-77
2022/01/15 06:45:34;;;;;;;;;;;1.60;94.60;;;;;;5019836;28;20012;-77
2022/01/15 06:48:00;;;;;;;;;;;1.60;94.60;;;;;;5026601;28;19931;-77
2022/01/15 06:50:27;;;;;;;;;;;1.60;94.60;;;;;;5019629;28;19910;-77
2022/01/15 06:52:53;;;;;;;;;;;1.60;94.70;;;;;;5019666;28;19909;-77
2022/01/15 06:55:19;;;;;;;;;;;1.60;94.60;;;;;;5019506;28;20283;-77
2022/01/15 06:57:45;;;;;;;;;;;1.70;94.60;;;;;;5019753;28;20296;-77
2022/01/15 07:00:11;;;;;;;;;;;1.70;94.60;;;;;;5019295;28;19928;-77
2022/01/15 07:02:37;;;;;;;;;;;1.70;94.60;;;;;;5019379;28;19913;-77
2022/01/15 07:05:04;;;;;;;;;;;1.70;94.70;;;;;;5019325;28;19932;-77
2022/01/15 07:07:29;;;;;;;;;;;1.70;95.00;;;;;;5012618;28;19910;-78
2022/01/15 07:09:55;;;;;;;;;;;1.70;94.80;;;;;;5028864;28;19909;-77
2022/01/15 07:12:21;;;;;;;;;;;1.70;94.80;;;;;;5018456;28;19909;-77
2022/01/15 07:14:46;;;;;;;;;;;1.70;94.80;;;;;;5018033;28;20000;-77
2022/01/15 07:17:12;;;;;;;;;;;1.70;94.80;;;;;;5019255;28;19949;-77
2022/01/15 07:19:37;;;;;;;;;;;1.70;95.00;;;;;;5017372;28;19953;-77
2022/01/15 07:22:04;;;;;;;;;;;1.70;95.00;;;;;;5019035;28;19910;-77
2022/01/15 07:24:29;;;;;;;;;;;1.70;95.00;;;;;;5019121;28;19910;-77
2022/01/15 07:26:55;;;;;;;;;;;1.70;95.00;;;;;;5018939;28;20015;-77
2022/01/15 07:29:23;;;;;;;;;;;1.70;95.10;;;;;;5018810;28;19996;-77
2022/01/15 07:31:49;;;;;;;;;;;1.60;95.10;;;;;;5020064;28;20295;-77
2022/01/15 07:34:15;;;;;;;;;;;1.60;95.10;;;;;;5023083;28;20011;-77
2022/01/15 07:36:41;;;;;;;;;;;1.70;95.10;;;;;;5019110;28;19948;-78
2022/01/15 07:39:07;;;;;;;;;;;1.70;95.10;;;;;;5018491;28;19913;-77
2022/01/15 07:41:33;;;;;;;;;;;1.70;95.10;;;;;;5018819;28;20008;-77
2022/01/15 07:43:59;;;;;;;;;;;1.70;95.00;;;;;;5018450;28;19931;-78
2022/01/15 07:46:25;;;;;;;;;;;1.70;95.10;;;;;;5021586;28;19996;-77
2022/01/15 07:48:51;;;;;;;;;;;1.70;95.00;;;;;;5022475;28;19909;-77
2022/01/15 07:51:16;;;;;;;;;;;1.70;95.10;;;;;;5018668;28;19910;-77
2022/01/15 07:53:43;;;;;;;;;;;1.70;95.00;;;;;;5018516;28;20008;-77
2022/01/15 07:56:08;;;;;;;;;;;1.70;95.10;;;;;;5017500;28;20391;-77
2022/01/15 07:58:34;;;;;;;;;;;1.70;95.10;;;;;;5017187;28;19917;-77
2022/01/15 08:01:00;;;;;;;;;;;1.70;95.10;;;;;;5018597;28;19910;-77
2022/01/15 08:03:25;;;;;;;;;;;1.70;95.10;;;;;;5018057;28;20065;-77
2022/01/15 08:05:51;;;;;;;;;;;1.70;95.20;;;;;;5018457;28;19960;-77
2022/01/15 08:08:16;;;;;;;;;;;1.70;95.20;;;;;;5005688;28;19909;-77
2022/01/15 08:10:42;;;;;;;;;;;1.70;95.20;;;;;;5018284;28;19921;-77
2022/01/15 08:13:08;;;;;;;;;;;1.70;95.20;;;;;;5018106;28;19909;-78
2022/01/15 08:15:34;;;;;;;;;;;1.70;95.30;;;;;;5017145;28;19964;-76
2022/01/15 08:18:00;;;;;;;;;;;1.70;95.30;;;;;;5017741;28;19930;-78
2022/01/15 08:20:26;;;;;;;;;;;1.70;95.30;;;;;;5018228;28;19910;-77
2022/01/15 08:22:52;;;;;;;;;;;1.70;95.30;;;;;;5018057;28;19910;-77
2022/01/15 08:25:18;;;;;;;;;;;1.70;95.30;;;;;;5017858;28;19922;-78
2022/01/15 08:27:44;;;;;;;;;;;1.70;95.30;;;;;;5017975;28;19913;-77
2022/01/15 08:30:12;;;;;;;;;;;1.70;95.30;;;;;;5018082;28;19917;-77
2022/01/15 08:32:37;;;;;;;;;;;1.80;95.40;;;;;;5030787;28;20304;-77
2022/01/15 08:35:03;;;;;;;;;;;1.80;95.40;;;;;;5018069;28;19918;-77
2022/01/15 08:37:29;;;;;;;;;;;1.80;95.30;;;;;;5017884;28;19964;-77
2022/01/15 08:39:55;;;;;;;;;;;1.80;95.30;;;;;;5018246;28;19918;-78
2022/01/15 08:42:20;;;;;;;;;;;1.90;95.30;;;;;;5017808;28;19960;-77
2022/01/15 08:44:46;;;;;;;;;;;1.90;95.30;;;;;;5017943;28;19910;-77
2022/01/15 08:47:12;;;;;;;;;;;1.90;95.30;;;;;;5025238;28;19948;-78
2022/01/15 08:49:38;;;;;;;;;;;1.90;95.30;;;;;;5017704;28;19916;-78
2022/01/15 08:52:04;;;;;;;;;;;1.90;95.20;;;;;;5017751;28;19972;-78
2022/01/15 08:54:30;;;;;;;;;;;2.00;95.20;;;;;;5017745;28;19909;-77
2022/01/15 08:56:55;;;;;;;;;;;2.00;95.20;;;;;;5017701;28;19910;-77
2022/01/15 08:59:23;;;;;;;;;;;2.00;95.20;;;;;;5017918;28;20377;-77
2022/01/15 09:01:49;;;;;;;;;;;2.00;95.20;;;;;;5017670;28;19909;-77
2022/01/15 09:04:14;;;;;;;;;;;2.00;95.20;;;;;;5017427;28;20308;-78
2022/01/15 09:06:40;;;;;;;;;;;2.00;95.20;;;;;;5017231;28;19910;-77
2022/01/15 09:09:06;;;;;;;;;;;2.00;95.20;;;;;;5005245;28;20296;-77
2022/01/15 09:11:32;;;;;;;;;;;2.10;95.20;;;;;;5017561;28;20562;-77
2022/01/15 09:13:57;;;;;;;;;;;2.10;95.20;;;;;;5016281;28;19975;-78
2022/01/15 09:16:23;;;;;;;;;;;2.20;95.20;;;;;;5017462;28;19914;-77
2022/01/15 09:18:49;;;;;;;;;;;2.20;95.20;;;;;;5017350;28;19921;-78
2022/01/15 09:21:16;;;;;;;;;;;2.20;95.20;;;;;;5017395;28;19924;-77
2022/01/15 09:23:41;;;;;;;;;;;2.30;95.20;;;;;;5017695;28;19932;-77
2022/01/15 09:26:18;;;;;;;;;;;2.30;95.10;;;;;;5017335;28;19921;-78
2022/01/15 09:31:27;;;;;;;;;;;2.40;95.10;;;;;;5017402;28;19916;-77
2022/01/15 09:33:53;;;;;;;;;;;2.40;95.00;;;;;;5023362;28;19910;-78
2022/01/15 09:36:19;;;;;;;;;;;2.40;95.00;;;;;;5018857;28;19913;-77
2022/01/15 09:38:44;;;;;;;;;;;2.40;95.00;;;;;;5020766;28;19917;-77
2022/01/15 09:41:10;;;;;;;;;;;2.50;95.00;;;;;;5019510;28;19959;-77
2022/01/15 09:43:37;;;;;;;;;;;2.50;95.00;;;;;;5019815;28;19909;-77
2022/01/15 09:46:04;;;;;;;;;;;2.50;95.00;;;;;;5020737;28;19916;-77
2022/01/15 09:48:30;;;;;;;;;;;2.50;95.00;;;;;;5012020;28;19918;-77
2022/01/15 09:50:56;;;;;;;;;;;2.60;95.00;;;;;;5019784;28;19909;-77
2022/01/15 09:53:21;;;;;;;;;;;2.60;94.90;;;;;;5020764;28;19910;-77
2022/01/15 09:55:48;;;;;;;;;;;2.60;94.90;;;;;;5020662;28;19910;-77
2022/01/15 09:58:14;;;;;;;;;;;2.70;94.90;;;;;;5020651;28;19913;-77
2022/01/15 10:00:40;;;;;;;;;;;2.70;94.90;;;;;;5020441;28;20385;-77
2022/01/15 10:03:06;;;;;;;;;;;2.70;94.90;;;;;;5020224;28;20000;-77
2022/01/15 10:05:32;;;;;;;;;;;2.80;94.90;;;;;;5020677;28;19933;-77
2022/01/15 10:08:05;;;;;;;;;;;2.80;94.90;;;;;;5009922;28;19910;-77
2022/01/15 10:10:31;;;;;;;;;;;2.80;94.90;;;;;;5019252;28;19917;-77
2022/01/15 10:13:29;;;;;;;;;;;2.80;94.90;;;;;;5020438;28;19909;-77
2022/01/15 10:15:55;;;;;;;;;;;2.90;94.90;;;;;;4966787;28;19913;-77
2022/01/15 10:18:25;;;;;;;;;;;3.00;94.90;;;;;;5016918;28;20012;-77
2022/01/15 10:20:52;;;;;;;;;;;3.00;94.90;;;;;;5020312;28;19916;-77
2022/01/15 10:23:18;;;;;;;;;;;3.10;94.80;;;;;;5020134;28;19937;-77
2022/01/15 10:25:44;;;;;;;;;;;3.10;94.80;;;;;;5018775;28;19956;-77
2022/01/15 10:28:10;;;;;;;;;;;3.10;94.80;;;;;;5019868;28;20373;-78
2022/01/15 10:30:36;;;;;;;;;;;3.20;95.10;;;;;;5020152;28;20029;-77
2022/01/15 10:33:08;;;;;;;;;;;3.20;94.80;;;;;;5025987;28;19913;-78
2022/01/15 10:35:35;;;;;;;;;;;3.30;94.80;;;;;;5020049;28;19909;-77
2022/01/15 10:38:03;;;;;;;;;;;3.30;94.80;;;;;;5019699;28;19967;-77
2022/01/15 10:40:55;;;;;;;;;;;3.40;94.80;;;;;;5019766;28;20013;-77
2022/01/15 10:43:29;;;;;;;;;;;3.50;94.80;;;;;;5009908;28;19916;-77
2022/01/15 10:45:57;;;;;;;;;;;3.50;94.70;;;;;;5019671;28;20435;-78
2022/01/15 10:48:25;;;;;;;;;;;3.60;94.70;;;;;;5024759;28;19909;-78
2022/01/15 10:50:58;;;;;;;;;;;3.60;94.60;;;;;;5019590;28;19910;-77
2022/01/15 10:53:40;;;;;;;;;;;3.60;94.50;;;;;;5019648;28;19932;-77
2022/01/15 10:56:06;;;;;;;;;;;3.60;94.50;;;;;;5008229;28;19909;-77
2022/01/15 10:58:32;;;;;;;;;;;3.70;94.40;;;;;;5019426;28;19914;-77
2022/01/15 11:00:58;;;;;;;;;;;3.70;94.40;;;;;;5018157;28;20383;-77
2022/01/15 11:03:33;;;;;;;;;;;3.70;94.30;;;;;;5021864;28;19914;-77
2022/01/15 11:05:59;;;;;;;;;;;3.70;94.40;;;;;;5019153;28;19914;-77
2022/01/15 11:08:26;;;;;;;;;;;3.70;94.30;;;;;;5020937;28;19917;-75
2022/01/15 11:10:56;;;;;;;;;;;3.70;94.30;;;;;;5009027;28;19933;-75
2022/01/15 11:13:23;;;;;;;;;;;3.70;94.60;;;;;;5017938;28;19910;-78
2022/01/15 11:15:54;;;;;;;;;;;3.80;94.30;;;;;;5015773;28;19927;-76
2022/01/15 11:18:21;;;;;;;;;;;3.80;94.50;;;;;;5024352;28;20284;-75
2022/01/15 11:20:48;;;;;;;;;;;3.70;94.20;;;;;;5018595;28;20387;-75
2022/01/15 11:23:14;;;;;;;;;;;3.70;94.20;;;;;;5018902;28;19910;-75
2022/01/15 11:25:42;;;;;;;;;;;3.70;94.10;;;;;;5019034;28;19987;-75
2022/01/15 11:28:08;;;;;;;;;;;3.70;94.10;;;;;;5018788;28;20293;-75
2022/01/15 11:30:34;;;;;;;;;;;3.80;94.20;;;;;;5019079;28;20368;-75
2022/01/15 11:33:00;;;;;;;;;;;3.80;94.30;;;;;;5026258;28;19909;-75
2022/01/15 11:35:37;;;;;;;;;;;3.80;94.20;;;;;;5019005;28;19952;-75
2022/01/15 11:38:03;;;;;;;;;;;3.90;94.20;;;;;;5018557;28;19944;-76
2022/01/15 11:40:28;;;;;;;;;;;3.90;94.20;;;;;;5017822;28;20304;-76
2022/01/15 11:42:54;;;;;;;;;;;3.90;94.20;;;;;;5020362;28;21040;-76
2022/01/15 11:45:35;;;;;;;;;;;4.00;94.20;;;;;;5028216;28;20357;-76
2022/01/15 11:48:20;;;;;;;;;;;4.10;94.10;;;;;;5019496;28;19995;-75
2022/01/15 11:51:06;;;;;;;;;;;4.10;94.10;;;;;;5007098;28;19910;-75
2022/01/15 11:53:44;;;;;;;;;;;4.10;94.00;;;;;;5017918;28;19914;-85
2022/01/15 11:56:20;;;;;;;;;;;4.20;94.10;;;;;;5019825;28;19914;-75
2022/01/15 11:58:46;;;;;;;;;;;4.20;94.00;;;;;;5005501;28;19913;-75
2022/01/15 12:01:30;;;;;;;;;;;4.30;94.00;;;;;;5018574;28;20399;-76
2022/01/15 12:04:14;;;;;;;;;;;4.40;94.10;;;;;;5018303;28;20008;-76
2022/01/15 12:06:59;;;;;;;;;;;4.50;94.10;;;;;;5016756;28;19910;-77
2022/01/15 12:09:34;;;;;;;;;;;4.60;94.10;;;;;;5013253;28;19913;-76
2022/01/15 12:12:01;;;;;;;;;;;4.70;94.00;;;;;;5018592;28;19910;-76
2022/01/15 12:14:45;;;;;;;;;;;4.80;93.90;;;;;;5017959;28;20383;-76
2022/01/15 12:17:26;;;;;;;;;;;4.90;93.80;;;;;;5018029;28;19910;-76
2022/01/15 12:19:52;;;;;;;;;;;5.10;94.00;;;;;;5006074;28;19967;-76
2022/01/15 12:22:34;;;;;;;;;;;5.30;93.90;;;;;;5018097;28;19917;-76
2022/01/15 12:25:01;;;;;;;;;;;5.40;93.50;;;;;;5018039;28;19918;-76
2022/01/15 12:27:27;;;;;;;;;;;5.40;93.10;;;;;;5016697;28;20446;-76
2022/01/15 12:30:06;;;;;;;;;;;5.40;92.90;;;;;;5004877;28;20281;-76
2022/01/15 12:32:33;;;;;;;;;;;5.30;92.90;;;;;;5023767;28;20261;-76
2022/01/15 12:35:00;;;;;;;;;;;5.40;93.10;;;;;;5017040;28;19957;-76
2022/01/15 12:37:25;;;;;;;;;;;5.50;93.10;;;;;;5017969;28;19922;-76
2022/01/15 12:39:51;;;;;;;;;;;5.60;93.00;;;;;;5018020;28;20389;-76
2022/01/15 12:42:17;;;;;;;;;;;5.60;92.80;;;;;;5017856;28;19910;-76
2022/01/15 12:44:53;;;;;;;;;;;5.60;92.60;;;;;;5018006;28;20468;-76
2022/01/15 12:47:20;;;;;;;;;;;5.60;92.40;;;;;;5024570;28;20385;-76
2022/01/15 12:49:51;;;;;;;;;;;5.50;92.30;;;;;;5017954;28;20335;-76
2022/01/15 12:52:20;;;;;;;;;;;5.60;92.50;;;;;;5017748;28;19998;-76
2022/01/15 12:54:46;;;;;;;;;;;5.60;92.70;;;;;;5018096;28;19909;-76
2022/01/15 12:57:12;;;;;;;;;;;5.80;92.80;;;;;;5017750;28;19968;-76
2022/01/15 12:59:39;;;;;;;;;;;5.90;92.70;;;;;;5017968;28;20369;-76
2022/01/15 13:02:05;;;;;;;;;;;6.00;92.40;;;;;;5017499;28;20357;-76
2022/01/15 13:04:31;;;;;;;;;;;6.00;92.30;;;;;;5017682;28;19933;-76
2022/01/15 13:06:58;;;;;;;;;;;6.10;92.40;;;;;;5015232;28;20384;-76
2022/01/15 13:09:37;;;;;;;;;;;6.20;92.20;;;;;;5006541;28;19921;-76
2022/01/15 13:12:03;;;;;;;;;;;6.20;91.90;;;;;;5019657;28;19909;-76
2022/01/15 13:14:41;;;;;;;;;;;6.20;91.70;;;;;;5021603;28;19963;-76
2022/01/15 13:17:23;;;;;;;;;;;6.10;91.60;;;;;;5022466;28;20356;-76
2022/01/15 13:19:49;;;;;;;;;;;6.10;91.50;;;;;;5013852;28;20288;-75
2022/01/15 13:22:18;;;;;;;;;;;6.00;91.60;;;;;;5016268;28;19920;-75
2022/01/15 13:24:44;;;;;;;;;;;6.00;91.70;;;;;;5025154;28;20020;-75
2022/01/15 13:27:09;;;;;;;;;;;6.10;91.90;;;;;;5025023;28;19925;-74
2022/01/15 13:29:37;;;;;;;;;;;6.10;92.00;;;;;;5022468;28;19921;-73
2022/01/15 13:32:03;;;;;;;;;;;6.30;92.10;;;;;;5024215;28;20004;-74
2022/01/15 13:34:34;;;;;;;;;;;6.40;92.10;;;;;;5026777;28;19952;-74
2022/01/15 13:37:11;;;;;;;;;;;6.40;91.90;;;;;;5023112;28;19913;-77
2022/01/15 13:39:38;;;;;;;;;;;6.40;91.60;;;;;;5025144;28;19917;-80
2022/01/15 13:42:04;;;;;;;;;;;6.50;91.70;;;;;;5026244;28;20852;-82
2022/01/15 13:44:33;;;;;;;;;;;6.60;91.70;;;;;;5020409;28;20391;-78
2022/01/15 13:47:08;;;;;;;;;;;6.70;91.60;;;;;;5022062;28;20391;-71
2022/01/15 13:55:25;;;;;;;;;;;6.80;91.10;;;;;;5026350;28;19967;-72
2022/01/15 13:57:51;;;;;;;;;;;6.90;91.00;;;;;;5032158;28;19922;-72
2022/01/15 14:00:17;;;;;;;;;;;7.00;91.10;;;;;;5024512;28;19913;-72
2022/01/15 14:02:44;;;;;;;;;;;7.10;91.00;;;;;;5025722;28;20380;-72
2022/01/15 14:05:22;;;;;;;;;;;7.20;90.80;;;;;;5030189;28;19914;-72
2022/01/15 14:07:48;;;;;;;;;;;7.20;90.50;;;;;;5026953;28;19921;-71
2022/01/15 14:10:18;;;;;;;;;;;7.20;90.40;;;;;;5033425;28;19943;-71
2022/01/15 14:12:44;;;;;;;;;;;7.20;90.60;;;;;;5032109;28;19936;-72
2022/01/15 14:15:14;;;;;;;;;;;7.20;90.40;;;;;;5029070;28;19913;-71
2022/01/15 14:17:43;;;;;;;;;;;7.10;90.30;;;;;;5020235;28;19956;-72
2022/01/15 14:22:46;;;;;;;;;;;6.90;90.20;;;;;;5031319;28;19920;-71
2022/01/15 14:25:12;;;;;;;;;;;6.80;90.40;;;;;;5025037;28;19917;-72
2022/01/15 14:27:37;;;;;;;;;;;6.70;90.50;;;;;;5026403;28;19924;-71
2022/01/15 14:30:04;;;;;;;;;;;6.70;90.80;;;;;;5026571;28;19920;-73
2022/01/15 14:32:30;;;;;;;;;;;6.70;90.90;;;;;;5032646;28;20404;-71
2022/01/15 14:34:57;;;;;;;;;;;6.70;91.00;;;;;;5026120;28;19914;-74
2022/01/15 14:37:23;;;;;;;;;;;6.70;90.90;;;;;;5024913;28;19909;-71
2022/01/15 14:39:49;;;;;;;;;;;6.70;90.90;;;;;;5019309;28;20423;-71
2022/01/15 14:42:15;;;;;;;;;;;6.60;90.90;;;;;;5018939;28;19945;-71
2022/01/15 14:44:41;;;;;;;;;;;6.60;90.90;;;;;;5019183;28;19916;-71
2022/01/15 14:47:06;;;;;;;;;;;6.60;91.00;;;;;;5027166;28;19915;-71
2022/01/15 14:49:32;;;;;;;;;;;6.50;91.00;;;;;;5019773;28;19932;-71
2022/01/15 14:51:58;;;;;;;;;;;6.50;91.00;;;;;;5019644;28;19910;-71
2022/01/15 14:54:24;;;;;;;;;;;6.40;91.00;;;;;;5019495;28;20404;-74
2022/01/15 14:56:49;;;;;;;;;;;6.40;91.10;;;;;;5025687;28;19920;-73
2022/01/15 14:59:15;;;;;;;;;;;6.40;91.10;;;;;;5025381;28;19921;-70